sensor_id;sensor_type;location;lat;lon;timestamp;P1;durP1;ratioP1;P2;durP2;ratioP2
59424;SDS011;45231;44.826;20.312;2023-07-16T00:00:00;15.40;;;8.90;;
59424;SDS011;45231;44.826;20.312;2023-07-16T00:02:26;15.50;;;9.38;;
59424;SDS011;45231;44.826;20.312;2023-07-16T00:04:52;14.95;;;9.93;;
59424;SDS011;45231;44.826;20.312;2023-07-16T00:07:18;14.75;;;9.45;;
59424;SDS011;45231;44.826;20.312;2023-07-16T00:09:44;14.32;;;9.55;;
59424;SDS011;45231;44.826;20.312;2023-07-16T00:14:36;12.15;;;9.38;;
59424;SDS011;45231;44.826;20.312;2023-07-16T00:17:02;18.73;;;10.85;;
59424;SDS011;45231;44.826;20.312;2023-07-16T00:19:28;14.70;;;9.85;;
59424;SDS011;45231;44.826;20.312;2023-07-16T00:21:54;17.05;;;10.35;;
59424;SDS011;45231;44.826;20.312;2023-07-16T00:24:21;14.93;;;9.75;;
59424;SDS011;45231;44.826;20.312;2023-07-16T00:26:47;19.73;;;10.85;;
59424;SDS011;45231;44.826;20.312;2023-07-16T00:29:13;21.23;;;11.00;;
59424;SDS011;45231;44.826;20.312;2023-07-16T00:31:39;17.80;;;10.65;;
59424;SDS011;45231;44.826;20.312;2023-07-16T00:34:05;14.25;;;10.48;;
59424;SDS011;45231;44.826;20.312;2023-07-16T00:36:31;20.17;;;11.65;;
59424;SDS011;45231;44.826;20.312;2023-07-16T00:38:57;17.65;;;11.15;;
59424;SDS011;45231;44.826;20.312;2023-07-16T00:41:23;18.98;;;10.85;;
59424;SDS011;45231;44.826;20.312;2023-07-16T00:43:49;14.60;;;10.27;;
59424;SDS011;45231;44.826;20.312;2023-07-16T00:46:15;13.50;;;10.00;;
59424;SDS011;45231;44.826;20.312;2023-07-16T00:48:41;15.75;;;9.93;;
59424;SDS011;45231;44.826;20.312;2023-07-16T00:51:07;17.83;;;11.32;;
59424;SDS011;45231;44.826;20.312;2023-07-16T00:53:33;16.08;;;9.75;;
59424;SDS011;45231;44.826;20.312;2023-07-16T00:56:00;16.40;;;11.75;;
59424;SDS011;45231;44.826;20.312;2023-07-16T00:58:26;15.57;;;11.10;;
59424;SDS011;45231;44.826;20.312;2023-07-16T01:00:52;17.40;;;11.63;;
59424;SDS011;45231;44.826;20.312;2023-07-16T01:03:18;16.33;;;11.60;;
59424;SDS011;45231;44.826;20.312;2023-07-16T01:08:10;16.38;;;11.50;;
59424;SDS011;45231;44.826;20.312;2023-07-16T01:10:40;17.30;;;12.20;;
59424;SDS011;45231;44.826;20.312;2023-07-16T01:13:06;17.73;;;12.05;;
59424;SDS011;45231;44.826;20.312;2023-07-16T01:15:32;16.48;;;12.07;;
59424;SDS011;45231;44.826;20.312;2023-07-16T01:17:58;19.05;;;12.38;;
59424;SDS011;45231;44.826;20.312;2023-07-16T01:20:25;20.67;;;12.38;;
59424;SDS011;45231;44.826;20.312;2023-07-16T01:22:55;18.55;;;12.10;;
59424;SDS011;45231;44.826;20.312;2023-07-16T01:30:34;19.50;;;12.30;;
59424;SDS011;45231;44.826;20.312;2023-07-16T01:33:03;19.15;;;12.32;;
59424;SDS011;45231;44.826;20.312;2023-07-16T01:35:30;21.48;;;12.43;;
59424;SDS011;45231;44.826;20.312;2023-07-16T01:37:57;16.27;;;11.82;;
59424;SDS011;45231;44.826;20.312;2023-07-16T01:40:23;19.67;;;11.98;;
59424;SDS011;45231;44.826;20.312;2023-07-16T01:42:49;16.13;;;11.70;;
59424;SDS011;45231;44.826;20.312;2023-07-16T01:45:15;18.15;;;11.93;;
59424;SDS011;45231;44.826;20.312;2023-07-16T01:50:10;16.48;;;12.80;;
59424;SDS011;45231;44.826;20.312;2023-07-16T01:52:36;17.67;;;12.15;;
59424;SDS011;45231;44.826;20.312;2023-07-16T01:55:02;19.67;;;13.10;;
59424;SDS011;45231;44.826;20.312;2023-07-16T01:57:28;16.77;;;12.52;;
59424;SDS011;45231;44.826;20.312;2023-07-16T01:59:54;20.17;;;13.52;;
59424;SDS011;45231;44.826;20.312;2023-07-16T02:02:20;18.20;;;11.98;;
59424;SDS011;45231;44.826;20.312;2023-07-16T02:04:46;21.88;;;13.07;;
59424;SDS011;45231;44.826;20.312;2023-07-16T02:07:12;16.33;;;12.18;;
59424;SDS011;45231;44.826;20.312;2023-07-16T02:09:39;15.70;;;12.45;;
59424;SDS011;45231;44.826;20.312;2023-07-16T02:12:05;17.20;;;11.90;;
59424;SDS011;45231;44.826;20.312;2023-07-16T02:14:31;21.00;;;14.05;;
59424;SDS011;45231;44.826;20.312;2023-07-16T02:16:57;21.05;;;13.30;;
59424;SDS011;45231;44.826;20.312;2023-07-16T02:19:23;18.10;;;13.85;;
59424;SDS011;45231;44.826;20.312;2023-07-16T02:21:51;19.15;;;12.77;;
59424;SDS011;45231;44.826;20.312;2023-07-16T02:24:17;18.45;;;13.18;;
59424;SDS011;45231;44.826;20.312;2023-07-16T02:26:43;16.17;;;13.20;;
59424;SDS011;45231;44.826;20.312;2023-07-16T02:29:09;19.55;;;13.05;;
59424;SDS011;45231;44.826;20.312;2023-07-16T02:31:35;17.27;;;12.48;;
59424;SDS011;45231;44.826;20.312;2023-07-16T02:34:02;17.08;;;12.98;;
59424;SDS011;45231;44.826;20.312;2023-07-16T02:36:28;18.45;;;12.63;;
59424;SDS011;45231;44.826;20.312;2023-07-16T02:38:54;18.67;;;12.60;;
59424;SDS011;45231;44.826;20.312;2023-07-16T02:41:20;18.27;;;12.50;;
59424;SDS011;45231;44.826;20.312;2023-07-16T02:43:46;18.08;;;12.00;;
59424;SDS011;45231;44.826;20.312;2023-07-16T02:46:12;17.08;;;13.15;;
59424;SDS011;45231;44.826;20.312;2023-07-16T02:48:38;18.70;;;11.73;;
59424;SDS011;45231;44.826;20.312;2023-07-16T02:51:04;17.90;;;12.02;;
59424;SDS011;45231;44.826;20.312;2023-07-16T02:53:30;17.92;;;12.15;;
59424;SDS011;45231;44.826;20.312;2023-07-16T02:55:56;18.58;;;11.55;;
59424;SDS011;45231;44.826;20.312;2023-07-16T02:58:22;14.32;;;11.82;;
59424;SDS011;45231;44.826;20.312;2023-07-16T03:00:48;19.05;;;12.18;;
59424;SDS011;45231;44.826;20.312;2023-07-16T03:05:40;16.27;;;12.27;;
59424;SDS011;45231;44.826;20.312;2023-07-16T03:08:06;18.27;;;13.05;;
59424;SDS011;45231;44.826;20.312;2023-07-16T03:10:32;17.48;;;11.85;;
59424;SDS011;45231;44.826;20.312;2023-07-16T03:12:59;20.48;;;12.20;;
59424;SDS011;45231;44.826;20.312;2023-07-16T03:15:25;17.35;;;12.55;;
59424;SDS011;45231;44.826;20.312;2023-07-16T03:17:51;17.52;;;11.73;;
59424;SDS011;45231;44.826;20.312;2023-07-16T03:20:17;17.95;;;12.65;;
59424;SDS011;45231;44.826;20.312;2023-07-16T03:22:43;17.73;;;11.75;;
59424;SDS011;45231;44.826;20.312;2023-07-16T03:25:09;20.10;;;12.45;;
59424;SDS011;45231;44.826;20.312;2023-07-16T03:27:35;20.83;;;11.70;;
59424;SDS011;45231;44.826;20.312;2023-07-16T03:30:01;17.23;;;11.70;;
59424;SDS011;45231;44.826;20.312;2023-07-16T03:32:29;17.55;;;12.57;;
59424;SDS011;45231;44.826;20.312;2023-07-16T03:34:55;18.15;;;11.77;;
59424;SDS011;45231;44.826;20.312;2023-07-16T03:37:21;17.80;;;11.70;;
59424;SDS011;45231;44.826;20.312;2023-07-16T03:39:47;15.70;;;11.45;;
59424;SDS011;45231;44.826;20.312;2023-07-16T03:42:13;17.13;;;12.15;;
59424;SDS011;45231;44.826;20.312;2023-07-16T03:44:39;17.63;;;11.43;;
59424;SDS011;45231;44.826;20.312;2023-07-16T03:47:05;16.42;;;10.95;;
59424;SDS011;45231;44.826;20.312;2023-07-16T03:49:31;22.00;;;12.32;;
59424;SDS011;45231;44.826;20.312;2023-07-16T03:51:57;18.38;;;10.85;;
59424;SDS011;45231;44.826;20.312;2023-07-16T03:54:23;15.05;;;11.30;;
59424;SDS011;45231;44.826;20.312;2023-07-16T03:56:49;13.82;;;11.25;;
59424;SDS011;45231;44.826;20.312;2023-07-16T03:59:15;15.50;;;11.07;;
59424;SDS011;45231;44.826;20.312;2023-07-16T04:01:41;14.75;;;11.98;;
59424;SDS011;45231;44.826;20.312;2023-07-16T04:04:07;17.55;;;13.15;;
59424;SDS011;45231;44.826;20.312;2023-07-16T04:06:33;19.27;;;14.13;;
59424;SDS011;45231;44.826;20.312;2023-07-16T04:08:59;18.00;;;13.65;;
59424;SDS011;45231;44.826;20.312;2023-07-16T04:11:25;19.80;;;12.85;;
59424;SDS011;45231;44.826;20.312;2023-07-16T04:13:51;15.77;;;11.63;;
59424;SDS011;45231;44.826;20.312;2023-07-16T04:16:17;17.73;;;11.35;;
59424;SDS011;45231;44.826;20.312;2023-07-16T04:18:43;17.45;;;11.13;;
59424;SDS011;45231;44.826;20.312;2023-07-16T04:21:10;12.52;;;10.52;;
59424;SDS011;45231;44.826;20.312;2023-07-16T04:23:36;16.80;;;10.25;;
59424;SDS011;45231;44.826;20.312;2023-07-16T04:26:02;14.82;;;10.00;;
59424;SDS011;45231;44.826;20.312;2023-07-16T04:28:28;15.65;;;9.95;;
59424;SDS011;45231;44.826;20.312;2023-07-16T04:30:54;23.48;;;10.35;;
59424;SDS011;45231;44.826;20.312;2023-07-16T04:33:20;13.73;;;9.65;;
59424;SDS011;45231;44.826;20.312;2023-07-16T04:35:46;13.20;;;9.13;;
59424;SDS011;45231;44.826;20.312;2023-07-16T04:40:38;14.13;;;9.05;;
59424;SDS011;45231;44.826;20.312;2023-07-16T04:43:04;14.15;;;8.55;;
59424;SDS011;45231;44.826;20.312;2023-07-16T04:45:30;13.65;;;8.68;;
59424;SDS011;45231;44.826;20.312;2023-07-16T04:47:56;12.07;;;8.20;;
59424;SDS011;45231;44.826;20.312;2023-07-16T04:50:24;16.30;;;8.02;;
59424;SDS011;45231;44.826;20.312;2023-07-16T04:55:16;11.30;;;7.68;;
59424;SDS011;45231;44.826;20.312;2023-07-16T05:00:08;11.68;;;7.75;;
59424;SDS011;45231;44.826;20.312;2023-07-16T05:02:34;14.02;;;8.20;;
59424;SDS011;45231;44.826;20.312;2023-07-16T05:05:00;14.73;;;7.85;;
59424;SDS011;45231;44.826;20.312;2023-07-16T05:07:27;25.13;;;8.48;;
59424;SDS011;45231;44.826;20.312;2023-07-16T05:12:18;11.02;;;7.70;;
59424;SDS011;45231;44.826;20.312;2023-07-16T05:14:45;11.68;;;7.85;;
59424;SDS011;45231;44.826;20.312;2023-07-16T05:17:12;12.65;;;8.00;;
59424;SDS011;45231;44.826;20.312;2023-07-16T05:19:38;12.95;;;7.57;;
59424;SDS011;45231;44.826;20.312;2023-07-16T05:22:04;11.52;;;6.93;;
59424;SDS011;45231;44.826;20.312;2023-07-16T05:24:31;10.93;;;7.22;;
59424;SDS011;45231;44.826;20.312;2023-07-16T05:26:57;10.35;;;6.50;;
59424;SDS011;45231;44.826;20.312;2023-07-16T05:29:23;11.55;;;7.05;;
59424;SDS011;45231;44.826;20.312;2023-07-16T05:31:49;11.38;;;6.75;;
59424;SDS011;45231;44.826;20.312;2023-07-16T05:34:15;11.23;;;6.80;;
59424;SDS011;45231;44.826;20.312;2023-07-16T05:36:42;11.73;;;6.28;;
59424;SDS011;45231;44.826;20.312;2023-07-16T05:39:11;12.05;;;6.32;;
59424;SDS011;45231;44.826;20.312;2023-07-16T05:41:38;9.98;;;6.50;;
59424;SDS011;45231;44.826;20.312;2023-07-16T05:44:05;11.30;;;6.68;;
59424;SDS011;45231;44.826;20.312;2023-07-16T05:46:31;12.40;;;6.95;;
59424;SDS011;45231;44.826;20.312;2023-07-16T05:48:57;10.52;;;6.60;;
59424;SDS011;45231;44.826;20.312;2023-07-16T05:51:23;10.15;;;6.20;;
59424;SDS011;45231;44.826;20.312;2023-07-16T05:53:49;11.93;;;6.07;;
59424;SDS011;45231;44.826;20.312;2023-07-16T05:56:15;10.80;;;6.00;;
59424;SDS011;45231;44.826;20.312;2023-07-16T05:58:41;10.45;;;6.00;;
59424;SDS011;45231;44.826;20.312;2023-07-16T06:01:08;11.52;;;6.03;;
59424;SDS011;45231;44.826;20.312;2023-07-16T06:03:34;12.00;;;5.75;;
59424;SDS011;45231;44.826;20.312;2023-07-16T06:06:00;11.38;;;6.05;;
59424;SDS011;45231;44.826;20.312;2023-07-16T06:08:26;15.98;;;5.80;;
59424;SDS011;45231;44.826;20.312;2023-07-16T06:10:52;9.55;;;6.30;;
59424;SDS011;45231;44.826;20.312;2023-07-16T06:13:18;11.38;;;5.63;;
59424;SDS011;45231;44.826;20.312;2023-07-16T06:15:45;11.40;;;5.88;;
59424;SDS011;45231;44.826;20.312;2023-07-16T06:18:13;8.60;;;5.80;;
59424;SDS011;45231;44.826;20.312;2023-07-16T06:20:42;10.85;;;6.65;;
59424;SDS011;45231;44.826;20.312;2023-07-16T06:23:08;8.57;;;5.55;;
59424;SDS011;45231;44.826;20.312;2023-07-16T06:25:36;15.80;;;5.72;;
59424;SDS011;45231;44.826;20.312;2023-07-16T06:28:03;10.57;;;5.90;;
59424;SDS011;45231;44.826;20.312;2023-07-16T06:30:29;11.23;;;6.20;;
59424;SDS011;45231;44.826;20.312;2023-07-16T06:32:57;9.68;;;6.13;;
59424;SDS011;45231;44.826;20.312;2023-07-16T06:35:23;11.40;;;5.68;;
59424;SDS011;45231;44.826;20.312;2023-07-16T06:37:49;8.73;;;5.85;;
59424;SDS011;45231;44.826;20.312;2023-07-16T06:40:15;10.23;;;5.35;;
59424;SDS011;45231;44.826;20.312;2023-07-16T06:42:41;11.40;;;6.13;;
59424;SDS011;45231;44.826;20.312;2023-07-16T06:45:08;9.82;;;6.03;;
59424;SDS011;45231;44.826;20.312;2023-07-16T06:47:34;10.05;;;5.75;;
59424;SDS011;45231;44.826;20.312;2023-07-16T06:50:00;12.38;;;5.57;;
59424;SDS011;45231;44.826;20.312;2023-07-16T06:52:26;10.13;;;5.47;;
59424;SDS011;45231;44.826;20.312;2023-07-16T06:54:52;10.23;;;5.60;;
59424;SDS011;45231;44.826;20.312;2023-07-16T06:57:19;14.15;;;5.95;;
59424;SDS011;45231;44.826;20.312;2023-07-16T06:59:45;10.52;;;5.47;;
59424;SDS011;45231;44.826;20.312;2023-07-16T07:02:11;10.45;;;5.20;;
59424;SDS011;45231;44.826;20.312;2023-07-16T07:04:37;8.10;;;5.20;;
59424;SDS011;45231;44.826;20.312;2023-07-16T07:07:03;7.38;;;5.20;;
59424;SDS011;45231;44.826;20.312;2023-07-16T07:09:30;12.60;;;5.82;;
59424;SDS011;45231;44.826;20.312;2023-07-16T07:11:56;14.30;;;5.45;;
59424;SDS011;45231;44.826;20.312;2023-07-16T07:14:22;9.07;;;5.15;;
59424;SDS011;45231;44.826;20.312;2023-07-16T07:16:48;10.68;;;5.03;;
59424;SDS011;45231;44.826;20.312;2023-07-16T07:19:14;10.32;;;5.80;;
59424;SDS011;45231;44.826;20.312;2023-07-16T07:21:40;10.43;;;5.43;;
59424;SDS011;45231;44.826;20.312;2023-07-16T07:24:06;9.88;;;5.20;;
59424;SDS011;45231;44.826;20.312;2023-07-16T07:26:32;7.70;;;5.15;;
59424;SDS011;45231;44.826;20.312;2023-07-16T07:28:58;8.45;;;5.18;;
59424;SDS011;45231;44.826;20.312;2023-07-16T07:31:24;10.30;;;5.75;;
59424;SDS011;45231;44.826;20.312;2023-07-16T07:33:50;10.60;;;5.43;;
59424;SDS011;45231;44.826;20.312;2023-07-16T07:36:18;8.18;;;5.28;;
59424;SDS011;45231;44.826;20.312;2023-07-16T07:38:44;10.27;;;5.55;;
59424;SDS011;45231;44.826;20.312;2023-07-16T07:41:10;8.50;;;5.10;;
59424;SDS011;45231;44.826;20.312;2023-07-16T07:43:37;8.02;;;5.20;;
59424;SDS011;45231;44.826;20.312;2023-07-16T07:46:03;9.48;;;5.00;;
59424;SDS011;45231;44.826;20.312;2023-07-16T07:48:29;8.55;;;5.18;;
59424;SDS011;45231;44.826;20.312;2023-07-16T07:50:55;7.70;;;5.03;;
59424;SDS011;45231;44.826;20.312;2023-07-16T07:53:21;9.15;;;5.30;;
59424;SDS011;45231;44.826;20.312;2023-07-16T07:55:47;10.27;;;5.78;;
59424;SDS011;45231;44.826;20.312;2023-07-16T07:58:13;8.82;;;5.00;;
59424;SDS011;45231;44.826;20.312;2023-07-16T08:00:39;7.40;;;5.32;;
59424;SDS011;45231;44.826;20.312;2023-07-16T08:03:05;8.27;;;5.25;;
59424;SDS011;45231;44.826;20.312;2023-07-16T08:05:31;9.20;;;5.10;;
59424;SDS011;45231;44.826;20.312;2023-07-16T08:07:59;11.80;;;5.60;;
59424;SDS011;45231;44.826;20.312;2023-07-16T08:10:25;10.15;;;5.53;;
59424;SDS011;45231;44.826;20.312;2023-07-16T08:12:51;9.15;;;5.47;;
59424;SDS011;45231;44.826;20.312;2023-07-16T08:15:17;12.70;;;5.25;;
59424;SDS011;45231;44.826;20.312;2023-07-16T08:17:44;7.60;;;4.82;;
59424;SDS011;45231;44.826;20.312;2023-07-16T08:20:10;17.73;;;5.30;;
59424;SDS011;45231;44.826;20.312;2023-07-16T08:22:37;8.90;;;5.05;;
59424;SDS011;45231;44.826;20.312;2023-07-16T08:25:04;10.60;;;5.25;;
59424;SDS011;45231;44.826;20.312;2023-07-16T08:27:30;8.60;;;5.53;;
59424;SDS011;45231;44.826;20.312;2023-07-16T08:29:56;9.93;;;5.47;;
59424;SDS011;45231;44.826;20.312;2023-07-16T08:32:23;11.85;;;5.60;;
59424;SDS011;45231;44.826;20.312;2023-07-16T08:34:49;11.70;;;5.65;;
59424;SDS011;45231;44.826;20.312;2023-07-16T08:37:15;9.27;;;5.50;;
59424;SDS011;45231;44.826;20.312;2023-07-16T08:39:41;10.48;;;5.50;;
59424;SDS011;45231;44.826;20.312;2023-07-16T08:42:08;10.63;;;5.50;;
59424;SDS011;45231;44.826;20.312;2023-07-16T08:44:36;8.25;;;4.65;;
59424;SDS011;45231;44.826;20.312;2023-07-16T08:47:02;8.43;;;5.07;;
59424;SDS011;45231;44.826;20.312;2023-07-16T08:49:29;9.35;;;5.38;;
59424;SDS011;45231;44.826;20.312;2023-07-16T08:51:55;12.48;;;5.10;;
59424;SDS011;45231;44.826;20.312;2023-07-16T08:54:22;15.13;;;5.43;;
59424;SDS011;45231;44.826;20.312;2023-07-16T08:56:50;7.22;;;4.93;;
59424;SDS011;45231;44.826;20.312;2023-07-16T08:59:16;17.40;;;5.63;;
59424;SDS011;45231;44.826;20.312;2023-07-16T09:01:42;10.50;;;5.53;;
59424;SDS011;45231;44.826;20.312;2023-07-16T09:04:09;9.65;;;5.03;;
59424;SDS011;45231;44.826;20.312;2023-07-16T09:06:35;14.07;;;6.10;;
59424;SDS011;45231;44.826;20.312;2023-07-16T09:09:01;12.88;;;5.50;;
59424;SDS011;45231;44.826;20.312;2023-07-16T09:11:27;14.60;;;5.30;;
59424;SDS011;45231;44.826;20.312;2023-07-16T09:13:53;10.93;;;5.43;;
59424;SDS011;45231;44.826;20.312;2023-07-16T09:16:19;9.80;;;5.18;;
59424;SDS011;45231;44.826;20.312;2023-07-16T09:18:46;8.85;;;5.20;;
59424;SDS011;45231;44.826;20.312;2023-07-16T09:21:12;8.50;;;5.25;;
59424;SDS011;45231;44.826;20.312;2023-07-16T09:23:38;7.93;;;5.45;;
59424;SDS011;45231;44.826;20.312;2023-07-16T09:26:06;8.70;;;5.47;;
59424;SDS011;45231;44.826;20.312;2023-07-16T09:28:33;9.27;;;5.60;;
59424;SDS011;45231;44.826;20.312;2023-07-16T09:31:05;9.13;;;5.35;;
59424;SDS011;45231;44.826;20.312;2023-07-16T09:33:32;9.63;;;5.55;;
59424;SDS011;45231;44.826;20.312;2023-07-16T09:35:58;12.90;;;5.85;;
59424;SDS011;45231;44.826;20.312;2023-07-16T09:38:25;8.35;;;5.43;;
59424;SDS011;45231;44.826;20.312;2023-07-16T09:40:52;10.73;;;5.57;;
59424;SDS011;45231;44.826;20.312;2023-07-16T09:43:19;11.65;;;5.03;;
59424;SDS011;45231;44.826;20.312;2023-07-16T09:45:46;12.88;;;5.53;;
59424;SDS011;45231;44.826;20.312;2023-07-16T09:48:13;9.65;;;5.50;;
59424;SDS011;45231;44.826;20.312;2023-07-16T09:50:40;9.13;;;5.65;;
59424;SDS011;45231;44.826;20.312;2023-07-16T09:53:10;12.23;;;5.88;;
59424;SDS011;45231;44.826;20.312;2023-07-16T09:55:36;9.10;;;5.57;;
59424;SDS011;45231;44.826;20.312;2023-07-16T09:58:04;10.40;;;5.60;;
59424;SDS011;45231;44.826;20.312;2023-07-16T10:00:31;11.18;;;6.80;;
59424;SDS011;45231;44.826;20.312;2023-07-16T10:02:58;10.07;;;5.75;;
59424;SDS011;45231;44.826;20.312;2023-07-16T10:05:25;10.50;;;5.78;;
59424;SDS011;45231;44.826;20.312;2023-07-16T10:07:53;10.98;;;6.00;;
59424;SDS011;45231;44.826;20.312;2023-07-16T10:10:19;13.15;;;6.13;;
59424;SDS011;45231;44.826;20.312;2023-07-16T10:12:55;8.40;;;6.00;;
59424;SDS011;45231;44.826;20.312;2023-07-16T10:15:26;8.32;;;6.10;;
59424;SDS011;45231;44.826;20.312;2023-07-16T10:17:52;9.30;;;6.55;;
59424;SDS011;45231;44.826;20.312;2023-07-16T10:20:27;12.02;;;6.53;;
59424;SDS011;45231;44.826;20.312;2023-07-16T10:22:53;9.50;;;6.93;;
59424;SDS011;45231;44.826;20.312;2023-07-16T10:27:46;12.07;;;8.38;;
59424;SDS011;45231;44.826;20.312;2023-07-16T10:30:13;13.25;;;8.27;;
59424;SDS011;45231;44.826;20.312;2023-07-16T10:32:39;11.50;;;7.55;;
59424;SDS011;45231;44.826;20.312;2023-07-16T10:35:05;11.45;;;7.80;;
59424;SDS011;45231;44.826;20.312;2023-07-16T10:37:32;10.98;;;7.88;;
59424;SDS011;45231;44.826;20.312;2023-07-16T10:39:58;12.02;;;8.15;;
59424;SDS011;45231;44.826;20.312;2023-07-16T10:42:25;10.07;;;7.95;;
59424;SDS011;45231;44.826;20.312;2023-07-16T10:44:53;10.82;;;8.13;;
59424;SDS011;45231;44.826;20.312;2023-07-16T10:49:46;10.70;;;7.88;;
59424;SDS011;45231;44.826;20.312;2023-07-16T10:52:12;11.13;;;7.30;;
59424;SDS011;45231;44.826;20.312;2023-07-16T10:54:39;12.15;;;7.35;;
59424;SDS011;45231;44.826;20.312;2023-07-16T10:57:05;12.68;;;7.82;;
59424;SDS011;45231;44.826;20.312;2023-07-16T10:59:32;13.98;;;8.55;;
59424;SDS011;45231;44.826;20.312;2023-07-16T11:01:58;11.93;;;7.82;;
59424;SDS011;45231;44.826;20.312;2023-07-16T11:04:24;12.95;;;7.75;;
59424;SDS011;45231;44.826;20.312;2023-07-16T11:06:50;10.82;;;7.78;;
59424;SDS011;45231;44.826;20.312;2023-07-16T11:09:16;13.23;;;8.82;;
59424;SDS011;45231;44.826;20.312;2023-07-16T11:11:42;15.38;;;9.02;;
59424;SDS011;45231;44.826;20.312;2023-07-16T11:14:08;15.48;;;8.80;;
59424;SDS011;45231;44.826;20.312;2023-07-16T11:16:35;14.38;;;8.52;;
59424;SDS011;45231;44.826;20.312;2023-07-16T11:19:04;15.43;;;8.43;;
59424;SDS011;45231;44.826;20.312;2023-07-16T11:21:33;13.63;;;8.50;;
59424;SDS011;45231;44.826;20.312;2023-07-16T11:24:07;11.38;;;8.60;;
59424;SDS011;45231;44.826;20.312;2023-07-16T11:26:33;11.77;;;8.75;;
59424;SDS011;45231;44.826;20.312;2023-07-16T11:29:00;11.05;;;8.32;;
59424;SDS011;45231;44.826;20.312;2023-07-16T11:31:26;13.10;;;8.73;;
59424;SDS011;45231;44.826;20.312;2023-07-16T11:33:52;12.90;;;8.40;;
59424;SDS011;45231;44.826;20.312;2023-07-16T11:36:18;14.48;;;9.15;;
59424;SDS011;45231;44.826;20.312;2023-07-16T11:38:44;13.82;;;8.55;;
59424;SDS011;45231;44.826;20.312;2023-07-16T11:41:10;12.55;;;8.82;;
59424;SDS011;45231;44.826;20.312;2023-07-16T11:43:36;12.73;;;9.55;;
59424;SDS011;45231;44.826;20.312;2023-07-16T11:46:03;13.00;;;9.48;;
59424;SDS011;45231;44.826;20.312;2023-07-16T11:48:29;18.00;;;9.85;;
59424;SDS011;45231;44.826;20.312;2023-07-16T11:50:56;20.20;;;10.48;;
59424;SDS011;45231;44.826;20.312;2023-07-16T11:53:22;16.65;;;9.68;;
59424;SDS011;45231;44.826;20.312;2023-07-16T11:55:48;13.70;;;9.80;;
59424;SDS011;45231;44.826;20.312;2023-07-16T11:58:14;16.88;;;9.52;;
59424;SDS011;45231;44.826;20.312;2023-07-16T12:00:40;16.05;;;10.32;;
59424;SDS011;45231;44.826;20.312;2023-07-16T12:03:06;16.52;;;9.50;;
59424;SDS011;45231;44.826;20.312;2023-07-16T12:05:32;14.68;;;10.15;;
59424;SDS011;45231;44.826;20.312;2023-07-16T12:07:58;13.38;;;9.63;;
59424;SDS011;45231;44.826;20.312;2023-07-16T12:10:24;13.32;;;10.32;;
59424;SDS011;45231;44.826;20.312;2023-07-16T12:12:50;15.63;;;9.55;;
59424;SDS011;45231;44.826;20.312;2023-07-16T12:15:16;14.07;;;9.40;;
59424;SDS011;45231;44.826;20.312;2023-07-16T12:17:43;12.77;;;9.25;;
59424;SDS011;45231;44.826;20.312;2023-07-16T12:20:09;14.88;;;9.95;;
59424;SDS011;45231;44.826;20.312;2023-07-16T12:22:35;16.10;;;10.48;;
59424;SDS011;45231;44.826;20.312;2023-07-16T12:25:01;14.95;;;9.77;;
59424;SDS011;45231;44.826;20.312;2023-07-16T12:27:27;12.07;;;10.60;;
59424;SDS011;45231;44.826;20.312;2023-07-16T12:29:53;13.60;;;10.15;;
59424;SDS011;45231;44.826;20.312;2023-07-16T12:32:19;14.02;;;10.07;;
59424;SDS011;45231;44.826;20.312;2023-07-16T12:34:46;13.75;;;9.43;;
59424;SDS011;45231;44.826;20.312;2023-07-16T12:37:12;16.38;;;9.45;;
59424;SDS011;45231;44.826;20.312;2023-07-16T12:39:38;11.23;;;8.63;;
59424;SDS011;45231;44.826;20.312;2023-07-16T12:42:04;11.82;;;8.55;;
59424;SDS011;45231;44.826;20.312;2023-07-16T12:44:30;13.13;;;8.32;;
59424;SDS011;45231;44.826;20.312;2023-07-16T12:46:56;11.73;;;8.27;;
59424;SDS011;45231;44.826;20.312;2023-07-16T12:49:22;10.60;;;8.10;;
59424;SDS011;45231;44.826;20.312;2023-07-16T12:51:48;10.75;;;8.30;;
59424;SDS011;45231;44.826;20.312;2023-07-16T12:54:14;12.30;;;9.20;;
59424;SDS011;45231;44.826;20.312;2023-07-16T12:56:40;13.93;;;9.75;;
59424;SDS011;45231;44.826;20.312;2023-07-16T12:59:06;12.55;;;9.57;;
59424;SDS011;45231;44.826;20.312;2023-07-16T13:01:33;13.80;;;9.95;;
59424;SDS011;45231;44.826;20.312;2023-07-16T13:03:59;13.25;;;9.40;;
59424;SDS011;45231;44.826;20.312;2023-07-16T13:06:25;15.57;;;9.85;;
59424;SDS011;45231;44.826;20.312;2023-07-16T13:08:51;11.35;;;9.35;;
59424;SDS011;45231;44.826;20.312;2023-07-16T13:11:17;9.60;;;8.60;;
59424;SDS011;45231;44.826;20.312;2023-07-16T13:13:43;12.05;;;8.88;;
59424;SDS011;45231;44.826;20.312;2023-07-16T13:16:09;12.45;;;9.35;;
59424;SDS011;45231;44.826;20.312;2023-07-16T13:18:35;10.85;;;9.45;;
59424;SDS011;45231;44.826;20.312;2023-07-16T13:21:01;12.43;;;10.48;;
59424;SDS011;45231;44.826;20.312;2023-07-16T13:23:28;13.07;;;10.13;;
59424;SDS011;45231;44.826;20.312;2023-07-16T13:25:54;13.85;;;10.05;;
59424;SDS011;45231;44.826;20.312;2023-07-16T13:28:21;13.13;;;9.82;;
59424;SDS011;45231;44.826;20.312;2023-07-16T13:30:48;13.05;;;10.60;;
59424;SDS011;45231;44.826;20.312;2023-07-16T13:33:14;12.00;;;10.38;;
59424;SDS011;45231;44.826;20.312;2023-07-16T13:35:41;11.80;;;9.57;;
59424;SDS011;45231;44.826;20.312;2023-07-16T13:38:07;12.80;;;10.57;;
59424;SDS011;45231;44.826;20.312;2023-07-16T13:40:33;14.02;;;10.73;;
59424;SDS011;45231;44.826;20.312;2023-07-16T13:42:59;12.10;;;10.80;;
59424;SDS011;45231;44.826;20.312;2023-07-16T13:45:25;12.77;;;11.25;;
59424;SDS011;45231;44.826;20.312;2023-07-16T13:47:51;11.85;;;10.75;;
59424;SDS011;45231;44.826;20.312;2023-07-16T13:50:17;13.68;;;11.27;;
59424;SDS011;45231;44.826;20.312;2023-07-16T13:52:44;14.43;;;13.02;;
59424;SDS011;45231;44.826;20.312;2023-07-16T13:55:10;15.57;;;13.00;;
59424;SDS011;45231;44.826;20.312;2023-07-16T13:57:36;14.60;;;13.15;;
59424;SDS011;45231;44.826;20.312;2023-07-16T14:00:02;15.88;;;13.90;;
59424;SDS011;45231;44.826;20.312;2023-07-16T14:02:29;14.77;;;13.23;;
59424;SDS011;45231;44.826;20.312;2023-07-16T14:04:55;14.77;;;13.45;;
59424;SDS011;45231;44.826;20.312;2023-07-16T14:07:22;15.35;;;13.85;;
59424;SDS011;45231;44.826;20.312;2023-07-16T14:09:48;17.33;;;13.75;;
59424;SDS011;45231;44.826;20.312;2023-07-16T14:12:14;16.10;;;14.35;;
59424;SDS011;45231;44.826;20.312;2023-07-16T14:14:40;16.33;;;14.82;;
59424;SDS011;45231;44.826;20.312;2023-07-16T14:17:06;16.10;;;14.50;;
59424;SDS011;45231;44.826;20.312;2023-07-16T14:19:32;16.80;;;15.20;;
59424;SDS011;45231;44.826;20.312;2023-07-16T14:21:58;17.90;;;16.02;;
59424;SDS011;45231;44.826;20.312;2023-07-16T14:24:24;18.75;;;16.85;;
59424;SDS011;45231;44.826;20.312;2023-07-16T14:26:50;18.25;;;16.27;;
59424;SDS011;45231;44.826;20.312;2023-07-16T14:29:17;19.83;;;18.02;;
59424;SDS011;45231;44.826;20.312;2023-07-16T14:31:43;20.10;;;17.77;;
59424;SDS011;45231;44.826;20.312;2023-07-16T14:34:09;20.13;;;18.15;;
59424;SDS011;45231;44.826;20.312;2023-07-16T14:36:35;21.20;;;19.30;;
59424;SDS011;45231;44.826;20.312;2023-07-16T14:39:01;21.13;;;19.23;;
59424;SDS011;45231;44.826;20.312;2023-07-16T14:41:28;19.88;;;18.17;;